Time;durP1;ratioP1;P1;durP2;ratioP2;P2;SDS_P1;SDS_P2;PMS_P1;PMS_P2;Temp;Humidity;BMP_temperature;BMP_pressure;BME280_temperature;BME280_humidity;BME280_pressure;Samples;Min_cycle;Max_cycle;Signal;HPM_P1;HPM_P2
2023/01/03 00:00:12;;;;;;;3.42;2.15;;;;;;;;;;5030809;28;20046;-81
2023/01/03 00:02:41;;;;;;;2.78;2.45;;;;;;;;;;5034385;28;20056;-81
2023/01/03 00:05:09;;;;;;;3.55;2.78;;;;;;;;;;5012923;28;20053;-80
2023/01/03 00:07:38;;;;;;;3.08;2.72;;;;;;;;;;5033166;23;20042;-80
2023/01/03 00:10:08;;;;;;;2.90;2.60;;;;;;;;;;5022559;28;20069;-81
2023/01/03 00:12:36;;;;;;;3.28;2.97;;;;;;;;;;4990074;28;20061;-80
2023/01/03 00:15:06;;;;;;;4.93;2.63;;;;;;;;;;5012739;28;20042;-81
2023/01/03 00:17:35;;;;;;;5.47;3.10;;;;;;;;;;5001679;28;20054;-80
2023/01/03 00:20:05;;;;;;;3.38;2.47;;;;;;;;;;4991085;28;20404;-81
2023/01/03 00:22:34;;;;;;;5.43;3.33;;;;;;;;;;4989040;28;20086;-80
2023/01/03 00:25:02;;;;;;;3.65;2.92;;;;;;;;;;4991807;28;20504;-81
2023/01/03 00:27:30;;;;;;;4.40;3.33;;;;;;;;;;4990658;28;20405;-81
2023/01/03 00:29:58;;;;;;;4.85;3.85;;;;;;;;;;5006692;28;20046;-81
2023/01/03 00:32:27;;;;;;;4.35;2.85;;;;;;;;;;4993597;28;20659;-81
2023/01/03 00:34:57;;;;;;;4.00;3.67;;;;;;;;;;4992151;28;20069;-81
2023/01/03 00:37:28;;;;;;;4.05;2.88;;;;;;;;;;4987809;28;20054;-81
2023/01/03 00:39:57;;;;;;;4.25;3.45;;;;;;;;;;4986437;28;20065;-81
2023/01/03 00:43:27;;;;;;;4.60;2.40;;;;;;;;;;4969675;28;20061;-81
2023/01/03 00:45:19;;;;;;;3.70;2.40;;;;;;;;;;4986013;28;20073;-81
2023/01/03 00:47:49;;;;;;;3.35;2.90;;;;;;;;;;4971180;28;20054;-81
2023/01/03 00:50:16;;;;;;;6.72;3.80;;;;;;;;;;4987820;28;20042;-81
2023/01/03 00:52:45;;;;;;;2.90;2.40;;;;;;;;;;4974676;28;20042;-81
2023/01/03 00:55:12;;;;;;;4.22;3.35;;;;;;;;;;4989464;28;20050;-81
2023/01/03 00:57:41;;;;;;;5.88;3.03;;;;;;;;;;4991198;28;20043;-81
2023/01/03 01:00:12;;;;;;;3.95;3.63;;;;;;;;;;4987811;28;20054;-81
2023/01/03 01:02:39;;;;;;;4.95;3.35;;;;;;;;;;4990602;28;20050;-81
2023/01/03 01:05:09;;;;;;;4.20;3.33;;;;;;;;;;4974016;28;20050;-81
2023/01/03 01:07:36;;;;;;;5.82;3.75;;;;;;;;;;4991904;28;20045;-81
2023/01/03 01:10:06;;;;;;;6.53;3.53;;;;;;;;;;5004107;28;20042;-81
2023/01/03 01:12:38;;;;;;;5.43;3.70;;;;;;;;;;4974501;28;20415;-81
2023/01/03 01:15:06;;;;;;;4.75;3.53;;;;;;;;;;4988757;28;20057;-81
2023/01/03 01:17:34;;;;;;;6.35;4.38;;;;;;;;;;5008715;28;20054;-81
2023/01/03 01:20:04;;;;;;;6.60;4.60;;;;;;;;;;4989727;28;20508;-81
2023/01/03 01:22:33;;;;;;;5.65;3.50;;;;;;;;;;4975025;28;20039;-81
2023/01/03 01:25:02;;;;;;;5.20;4.70;;;;;;;;;;4992409;28;20062;-81
2023/01/03 01:27:31;;;;;;;6.07;4.25;;;;;;;;;;4993518;28;20043;-81
2023/01/03 01:29:58;;;;;;;4.32;3.88;;;;;;;;;;4990249;28;20394;-81
2023/01/03 01:32:25;;;;;;;3.95;3.55;;;;;;;;;;4986595;28;20050;-81
2023/01/03 01:34:55;;;;;;;5.35;4.38;;;;;;;;;;4989058;28;20065;-81
2023/01/03 01:37:22;;;;;;;8.57;4.57;;;;;;;;;;4972109;28;20077;-81
2023/01/03 01:39:49;;;;;;;5.65;3.22;;;;;;;;;;5005243;28;20042;-81
2023/01/03 01:45:04;;;;;;;3.78;3.25;;;;;;;;;;4968919;28;20501;-81
2023/01/03 01:47:34;;;;;;;5.85;3.78;;;;;;;;;;4988409;28;20459;-81
2023/01/03 01:50:12;;;;;;;4.95;4.05;;;;;;;;;;4989155;28;20058;-81
2023/01/03 01:52:45;;;;;;;5.32;3.78;;;;;;;;;;5002437;28;20082;-81
2023/01/03 01:55:15;;;;;;;5.30;3.75;;;;;;;;;;5005303;28;20054;-81
2023/01/03 01:57:45;;;;;;;4.87;3.40;;;;;;;;;;4990574;28;20428;-81
2023/01/03 02:00:16;;;;;;;4.13;3.10;;;;;;;;;;4989790;28;20416;-81
2023/01/03 02:02:48;;;;;;;5.68;3.33;;;;;;;;;;4986498;28;20061;-81
2023/01/03 02:05:17;;;;;;;4.35;3.40;;;;;;;;;;4987572;28;20046;-81
2023/01/03 02:07:47;;;;;;;4.03;3.65;;;;;;;;;;4973488;28;20081;-80
2023/01/03 02:10:15;;;;;;;4.53;4.13;;;;;;;;;;4988669;28;20047;-81
2023/01/03 02:13:08;;;;;;;7.22;4.35;;;;;;;;;;4987597;28;20520;-81
2023/01/03 02:15:52;;;;;;;4.18;2.92;;;;;;;;;;4988089;28;20401;-81
2023/01/03 02:18:32;;;;;;;;;;;;;;;;;;5004489;28;20056;-81
2023/01/03 02:21:15;;;;;;;3.15;2.55;;;;;;;;;;4986274;28;19949;-80
2023/01/03 02:24:17;;;;;;;4.78;2.72;;;;;;;;;;4984451;28;20065;-81
2023/01/03 02:26:58;;;;;;;3.75;3.38;;;;;;;;;;5007098;28;20054;-81
2023/01/03 02:29:49;;;;;;;5.05;3.30;;;;;;;;;;4987985;28;20053;-81
2023/01/03 02:32:24;;;;;;;6.05;4.53;;;;;;;;;;4988917;28;20061;-81
2023/01/03 02:34:58;;;;;;;11.77;3.47;;;;;;;;;;4986649;28;20066;-81
2023/01/03 02:37:31;;;;;;;3.95;2.58;;;;;;;;;;4967746;28;20050;-81
2023/01/03 02:40:00;;;;;;;;;;;;;;;;;;4989729;28;20050;-81
2023/01/03 02:45:20;;;;;;;4.93;3.47;;;;;;;;;;4988841;28;20061;-80
2023/01/03 02:47:52;;;;;;;4.47;2.72;;;;;;;;;;4988830;28;20050;-81
2023/01/03 02:50:21;;;;;;;4.78;4.28;;;;;;;;;;4988938;28;20067;-81
2023/01/03 02:52:50;;;;;;;5.10;3.83;;;;;;;;;;5000844;28;20061;-81
2023/01/03 02:55:19;;;;;;;6.57;3.72;;;;;;;;;;4986785;28;20057;-80
2023/01/03 02:57:51;;;;;;;14.38;4.53;;;;;;;;;;4987130;28;20451;-81
2023/01/03 03:00:24;;;;;;;4.55;3.45;;;;;;;;;;5001485;28;20061;-81
2023/01/03 03:02:57;;;;;;;7.10;3.95;;;;;;;;;;4984520;28;20061;-81
2023/01/03 03:05:27;;;;;;;5.95;3.90;;;;;;;;;;4985604;28;20231;-80
2023/01/03 03:07:59;;;;;;;5.30;3.88;;;;;;;;;;4987750;28;20046;-81
2023/01/03 03:13:22;;;;;;;5.10;3.95;;;;;;;;;;4997074;28;20042;-80
2023/01/03 03:15:56;;;;;;;4.22;3.83;;;;;;;;;;4988667;28;20062;-80
2023/01/03 03:18:28;;;;;;;9.05;5.28;;;;;;;;;;4971980;28;20053;-80
2023/01/03 03:26:39;;;;;;;5.55;3.67;;;;;;;;;;4989961;28;20057;-80
2023/01/03 03:29:09;;;;;;;3.88;3.58;;;;;;;;;;4991935;28;20046;-80
2023/01/03 03:31:39;;;;;;;5.55;3.92;;;;;;;;;;4993848;28;20045;-80
2023/01/03 03:34:17;;;;;;;5.15;4.40;;;;;;;;;;4990210;28;20058;-80
2023/01/03 03:36:50;;;;;;;6.00;4.22;;;;;;;;;;5006493;28;20544;-80
2023/01/03 03:45:03;;;;;;;8.93;4.32;;;;;;;;;;4992272;28;20051;-80
2023/01/03 03:47:38;;;;;;;6.18;3.80;;;;;;;;;;4991499;28;20054;-80
2023/01/03 03:50:09;;;;;;;6.55;4.68;;;;;;;;;;4971964;28;20061;-80
2023/01/03 03:52:39;;;;;;;8.57;4.13;;;;;;;;;;4991074;28;20049;-80
2023/01/03 03:55:15;;;;;;;6.35;5.45;;;;;;;;;;4992918;28;20042;-80
2023/01/03 03:57:47;;;;;;;5.97;5.03;;;;;;;;;;4990245;28;20050;-80
2023/01/03 04:00:17;;;;;;;6.35;5.28;;;;;;;;;;4974412;28;20055;-80
2023/01/03 04:02:46;;;;;;;4.68;4.18;;;;;;;;;;4989402;28;20515;-80
2023/01/03 04:05:19;;;;;;;5.45;4.40;;;;;;;;;;4993869;28;20616;-80
2023/01/03 04:07:46;;;;;;;6.82;4.65;;;;;;;;;;4990298;28;20054;-80
2023/01/03 04:10:18;;;;;;;6.43;5.18;;;;;;;;;;4991407;28;20069;-80
2023/01/03 04:12:47;;;;;;;5.50;5.00;;;;;;;;;;4989783;28;20073;-80
2023/01/03 04:15:17;;;;;;;4.57;4.07;;;;;;;;;;4976587;28;20519;-80
2023/01/03 04:17:45;;;;;;;9.35;6.10;;;;;;;;;;4987614;28;20073;-80
2023/01/03 04:20:14;;;;;;;7.78;6.72;;;;;;;;;;5007684;28;20045;-80
2023/01/03 04:22:45;;;;;;;6.22;4.90;;;;;;;;;;4987192;28;20182;-80
2023/01/03 04:25:15;;;;;;;10.07;7.15;;;;;;;;;;4992914;28;20054;-80
2023/01/03 04:27:47;;;;;;;19.67;6.80;;;;;;;;;;4990469;28;20046;-80
2023/01/03 04:30:14;;;;;;;5.10;4.60;;;;;;;;;;4975533;28;20065;-80
2023/01/03 04:32:41;;;;;;;8.07;5.90;;;;;;;;;;4986821;28;20050;-80
2023/01/03 04:35:11;;;;;;;5.20;4.70;;;;;;;;;;4990803;28;20121;-80
2023/01/03 04:37:40;;;;;;;6.97;6.22;;;;;;;;;;4989316;28;20057;-80
2023/01/03 04:40:10;;;;;;;6.47;5.05;;;;;;;;;;4991135;28;20038;-80
2023/01/03 04:45:23;;;;;;;6.57;5.18;;;;;;;;;;4985200;28;20046;-80
2023/01/03 04:47:53;;;;;;;10.40;5.82;;;;;;;;;;4979560;28;20057;-80
2023/01/03 04:50:22;;;;;;;8.45;5.25;;;;;;;;;;4991290;28;20419;-80
2023/01/03 04:52:49;;;;;;;6.35;5.00;;;;;;;;;;4990800;28;20049;-80
2023/01/03 04:55:18;;;;;;;10.10;7.18;;;;;;;;;;5002095;28;20061;-80
2023/01/03 04:57:45;;;;;;;8.40;6.57;;;;;;;;;;4989633;28;20065;-80
2023/01/03 05:00:15;;;;;;;8.68;6.43;;;;;;;;;;4989761;28;20062;-80
2023/01/03 05:02:45;;;;;;;8.35;6.53;;;;;;;;;;4974010;28;22206;-81
2023/01/03 05:05:12;;;;;;;10.00;7.70;;;;;;;;;;4987523;28;20405;-81
2023/01/03 05:07:39;;;;;;;9.93;7.32;;;;;;;;;;4985390;28;20046;-81
2023/01/03 05:10:07;;;;;;;10.63;8.93;;;;;;;;;;4973339;28;20050;-81
2023/01/03 05:12:36;;;;;;;9.98;8.65;;;;;;;;;;4989432;28;20042;-81
2023/01/03 05:15:09;;;;;;;12.82;8.57;;;;;;;;;;4998107;28;20054;-81
2023/01/03 05:17:41;;;;;;;27.33;8.13;;;;;;;;;;4989038;28;20061;-80
2023/01/03 05:25:50;;;;;;;7.80;6.88;;;;;;;;;;4984418;28;20054;-80
2023/01/03 05:28:22;;;;;;;8.07;6.13;;;;;;;;;;4986970;28;20428;-80
2023/01/03 05:30:49;;;;;;;8.57;6.45;;;;;;;;;;4990686;28;20050;-80
2023/01/03 05:33:19;;;;;;;14.82;7.35;;;;;;;;;;4990740;28;20043;-81
2023/01/03 05:35:47;;;;;;;9.90;7.50;;;;;;;;;;5005658;28;20397;-80
2023/01/03 05:38:16;;;;;;;17.13;8.27;;;;;;;;;;4971467;28;20051;-81
2023/01/03 05:40:46;;;;;;;12.85;7.28;;;;;;;;;;5006111;28;20050;-80
2023/01/03 05:43:16;;;;;;;21.40;9.23;;;;;;;;;;5006485;28;20050;-80
2023/01/03 05:45:49;;;;;;;35.72;11.02;;;;;;;;;;4990541;28;20061;-80
2023/01/03 05:48:19;;;;;;;17.63;8.55;;;;;;;;;;4982192;28;20057;-80
2023/01/03 05:50:49;;;;;;;14.60;8.57;;;;;;;;;;4987775;28;20088;-80
2023/01/03 05:53:17;;;;;;;15.27;9.07;;;;;;;;;;4990196;28;20065;-80
2023/01/03 05:55:44;;;;;;;24.80;10.38;;;;;;;;;;4972166;28;20062;-81
2023/01/03 05:58:16;;;;;;;15.88;8.75;;;;;;;;;;4986177;28;20066;-81
2023/01/03 06:00:45;;;;;;;19.30;8.75;;;;;;;;;;4996481;28;20053;-81
2023/01/03 06:03:15;;;;;;;18.42;11.48;;;;;;;;;;4980830;28;20053;-81
2023/01/03 06:05:42;;;;;;;23.27;10.40;;;;;;;;;;4974306;28;20061;-81
2023/01/03 06:08:09;;;;;;;22.35;8.20;;;;;;;;;;4988626;28;20062;-80
2023/01/03 06:10:39;;;;;;;66.85;13.85;;;;;;;;;;4977500;28;20046;-80
2023/01/03 06:13:08;;;;;;;32.53;13.32;;;;;;;;;;4989386;28;20055;-81
2023/01/03 06:15:38;;;;;;;84.28;24.02;;;;;;;;;;4991736;28;20046;-81
2023/01/03 06:18:08;;;;;;;20.45;8.25;;;;;;;;;;4975415;28;20539;-80
2023/01/03 06:20:38;;;;;;;24.27;12.50;;;;;;;;;;4972935;28;20073;-81
2023/01/03 06:23:06;;;;;;;86.10;24.48;;;;;;;;;;4985423;28;20042;-81
2023/01/03 06:25:33;;;;;;;28.77;11.45;;;;;;;;;;4992522;28;20046;-81
2023/01/03 06:28:00;;;;;;;26.52;13.20;;;;;;;;;;4992156;28;20058;-80
2023/01/03 06:30:29;;;;;;;27.48;12.82;;;;;;;;;;4959430;28;20054;-80
2023/01/03 06:32:57;;;;;;;65.35;13.27;;;;;;;;;;4976130;28;20049;-80
2023/01/03 06:35:25;;;;;;;86.80;24.83;;;;;;;;;;4975942;28;20053;-81
2023/01/03 06:37:52;;;;;;;61.25;29.65;;;;;;;;;;4975767;28;20065;-80
2023/01/03 06:40:20;;;;;;;75.40;24.63;;;;;;;;;;4976335;28;20073;-81
2023/01/03 06:42:49;;;;;;;88.60;19.77;;;;;;;;;;4975875;28;20054;-81
2023/01/03 06:53:42;;;;;;;31.63;9.95;;;;;;;;;;4977741;28;20053;-80
2023/01/03 06:56:12;;;;;;;55.97;15.02;;;;;;;;;;4990615;28;20053;-81
2023/01/03 06:58:44;;;;;;;83.38;15.32;;;;;;;;;;4988799;28;20057;-80
2023/01/03 07:01:13;;;;;;;48.50;14.45;;;;;;;;;;4991620;28;20057;-81
2023/01/03 07:03:41;;;;;;;25.98;12.38;;;;;;;;;;4973797;28;20065;-81
2023/01/03 07:06:10;;;;;;;25.25;11.77;;;;;;;;;;4991076;28;20054;-81
2023/01/03 07:08:39;;;;;;;18.90;8.63;;;;;;;;;;4991005;28;20330;-81
2023/01/03 07:11:06;;;;;;;25.35;10.68;;;;;;;;;;5008298;28;20061;-80
2023/01/03 07:16:21;;;;;;;27.42;11.25;;;;;;;;;;4992529;28;20046;-81
2023/01/03 07:18:49;;;;;;;20.95;8.90;;;;;;;;;;4991815;28;20047;-81
2023/01/03 07:21:17;;;;;;;17.25;9.93;;;;;;;;;;4994024;28;20054;-81
2023/01/03 07:23:47;;;;;;;27.73;8.98;;;;;;;;;;4993101;28;20042;-81
2023/01/03 07:26:14;;;;;;;53.25;13.63;;;;;;;;;;4991208;28;20054;-81
2023/01/03 07:28:41;;;;;;;46.63;15.60;;;;;;;;;;4992160;28;20519;-81
2023/01/03 07:31:09;;;;;;;35.13;12.35;;;;;;;;;;5009861;28;20046;-81
2023/01/03 07:33:38;;;;;;;24.30;13.20;;;;;;;;;;4991729;28;20041;-81
2023/01/03 07:36:07;;;;;;;42.70;13.18;;;;;;;;;;4976796;28;20489;-81
2023/01/03 07:38:38;;;;;;;35.33;16.23;;;;;;;;;;4991606;28;20046;-81
2023/01/03 07:41:07;;;;;;;29.77;14.77;;;;;;;;;;4977175;28;20500;-81
2023/01/03 07:43:36;;;;;;;26.45;10.75;;;;;;;;;;4993708;28;20038;-81
2023/01/03 07:46:09;;;;;;;;;;;;;;;;;;4995430;28;20054;-81
2023/01/03 07:48:39;;;;;;;23.77;13.43;;;;;;;;;;4991428;28;19928;-80
2023/01/03 07:51:12;;;;;;;63.00;14.68;;;;;;;;;;4992460;28;20424;-81
2023/01/03 07:53:41;;;;;;;17.58;9.27;;;;;;;;;;4992725;28;20060;-81
2023/01/03 07:56:10;;;;;;;34.72;12.68;;;;;;;;;;4991558;28;20054;-81
2023/01/03 07:58:40;;;;;;;72.10;21.05;;;;;;;;;;4987878;28;20038;-81
2023/01/03 08:01:09;;;;;;;58.50;13.35;;;;;;;;;;4995412;28;20065;-81
2023/01/03 08:03:38;;;;;;;39.92;14.52;;;;;;;;;;4991346;28;20049;-81
2023/01/03 08:06:06;;;;;;;26.35;12.35;;;;;;;;;;4993580;28;20038;-81
2023/01/03 08:08:34;;;;;;;32.15;12.52;;;;;;;;;;4991339;28;20050;-81
2023/01/03 08:13:51;;;;;;;20.55;11.00;;;;;;;;;;4991686;28;20050;-81
2023/01/03 08:16:21;;;;;;;23.08;11.10;;;;;;;;;;4991633;28;20386;-81
2023/01/03 08:18:51;;;;;;;17.38;7.47;;;;;;;;;;5006545;28;20038;-81
2023/01/03 08:21:18;;;;;;;20.88;7.57;;;;;;;;;;4993391;28;20058;-82
2023/01/03 08:23:47;;;;;;;23.20;10.38;;;;;;;;;;4991569;28;20053;-82
2023/01/03 08:26:19;;;;;;;25.80;9.35;;;;;;;;;;5007551;28;20042;-81
2023/01/03 08:28:47;;;;;;;34.70;10.65;;;;;;;;;;4989698;28;20046;-82
2023/01/03 08:31:16;;;;;;;55.08;10.98;;;;;;;;;;4992918;28;20053;-81
2023/01/03 08:33:46;;;;;;;23.83;10.95;;;;;;;;;;4991803;28;20046;-82
2023/01/03 08:36:14;;;;;;;50.88;14.35;;;;;;;;;;4987206;28;20053;-81
2023/01/03 08:38:46;;;;;;;47.50;13.27;;;;;;;;;;4988987;28;20053;-81
2023/01/03 08:41:19;;;;;;;24.55;11.02;;;;;;;;;;4994124;28;20046;-81
2023/01/03 08:43:49;;;;;;;32.55;12.45;;;;;;;;;;4990401;28;20136;-81
2023/01/03 08:46:17;;;;;;;29.35;11.93;;;;;;;;;;4992118;28;20069;-82
2023/01/03 08:48:46;;;;;;;48.90;15.80;;;;;;;;;;4993188;28;20405;-82
2023/01/03 08:51:14;;;;;;;53.67;15.73;;;;;;;;;;4992408;28;20050;-82
2023/01/03 08:53:43;;;;;;;33.50;13.82;;;;;;;;;;4974200;28;20080;-81
2023/01/03 08:56:10;;;;;;;51.05;14.32;;;;;;;;;;4992719;28;20050;-81
2023/01/03 08:58:39;;;;;;;42.25;13.63;;;;;;;;;;4992100;28;20061;-81
2023/01/03 09:01:07;;;;;;;90.88;21.35;;;;;;;;;;4990903;28;20056;-81
2023/01/03 09:03:36;;;;;;;29.83;13.07;;;;;;;;;;4989553;28;20072;-81
2023/01/03 09:06:04;;;;;;;72.10;14.63;;;;;;;;;;4990610;28;20050;-81
2023/01/03 09:08:34;;;;;;;67.70;16.83;;;;;;;;;;4990753;28;20053;-82
2023/01/03 09:11:05;;;;;;;34.40;13.52;;;;;;;;;;4991079;28;20050;-82
2023/01/03 09:13:32;;;;;;;45.85;17.08;;;;;;;;;;4986949;28;20428;-83
2023/01/03 09:16:04;;;;;;;35.95;11.82;;;;;;;;;;4988269;28;20043;-82
2023/01/03 09:18:34;;;;;;;65.40;16.15;;;;;;;;;;4987080;28;20053;-81
2023/01/03 09:21:02;;;;;;;38.53;12.63;;;;;;;;;;4981845;28;20054;-83
2023/01/03 09:23:32;;;;;;;49.83;15.32;;;;;;;;;;4982409;28;20043;-82
2023/01/03 09:25:59;;;;;;;84.53;17.77;;;;;;;;;;4987879;28;20083;-82
2023/01/03 09:28:29;;;;;;;53.70;12.05;;;;;;;;;;4985924;28;20057;-81
2023/01/03 09:30:56;;;;;;;64.28;16.65;;;;;;;;;;4972856;28;20531;-81
2023/01/03 09:33:27;;;;;;;33.85;15.68;;;;;;;;;;4989763;28;20046;-81
2023/01/03 09:35:57;;;;;;;64.45;15.98;;;;;;;;;;4987520;28;20489;-81
2023/01/03 09:38:25;;;;;;;32.92;12.52;;;;;;;;;;4985545;28;20050;-81
2023/01/03 10:35:09;;;;;;;56.25;14.38;;;;;;;;;;962775;22;20325;-89
2023/01/03 10:37:49;;;;;;;35.80;14.18;;;;;;;;;;4992377;28;20053;-91
2023/01/03 10:40:25;;;;;;;41.33;13.13;;;;;;;;;;5009041;28;20045;-91
2023/01/03 10:42:59;;;;;;;33.53;13.10;;;;;;;;;;4989294;28;20419;-93
2023/01/03 10:45:33;;;;;;;36.65;12.63;;;;;;;;;;5000482;28;20042;-90
2023/01/03 10:48:14;;;;;;;21.65;13.90;;;;;;;;;;4979051;28;20041;-89
2023/01/03 10:50:49;;;;;;;46.30;12.70;;;;;;;;;;4988570;28;20054;-91
2023/01/03 10:53:24;;;;;;;26.42;11.35;;;;;;;;;;4992594;28;20058;-90
2023/01/03 10:55:54;;;;;;;18.27;10.15;;;;;;;;;;5003988;28;20053;-91
2023/01/03 10:58:24;;;;;;;18.73;11.75;;;;;;;;;;4989095;28;20046;-91
2023/01/03 11:00:54;;;;;;;17.15;10.55;;;;;;;;;;4990119;28;20508;-91
2023/01/03 11:03:23;;;;;;;17.65;13.23;;;;;;;;;;4990972;28;20046;-90
2023/01/03 11:06:07;;;;;;;24.45;11.43;;;;;;;;;;4986777;28;20583;-91
2023/01/03 11:08:41;;;;;;;16.00;10.93;;;;;;;;;;4992722;28;20065;-91
2023/01/03 11:11:26;;;;;;;16.15;12.38;;;;;;;;;;4996693;28;20510;-91
2023/01/03 11:14:29;;;;;;;;;;;;;;;;;;;;;
2023/01/03 11:17:00;;;;;;;15.20;11.13;;;;;;;;;;4990702;28;20049;-92
2023/01/03 11:19:29;;;;;;;20.38;12.23;;;;;;;;;;4993393;28;20423;-91
2023/01/03 11:22:07;;;;;;;16.85;11.68;;;;;;;;;;5011682;28;20049;-91
2023/01/03 11:24:53;;;;;;;14.57;9.70;;;;;;;;;;4997728;28;20042;-91
2023/01/03 11:27:33;;;;;;;15.32;10.15;;;;;;;;;;4990491;28;20054;-91
2023/01/03 11:30:17;;;;;;;14.68;9.88;;;;;;;;;;4972743;28;20054;-91
2023/01/03 11:32:55;;;;;;;12.55;10.35;;;;;;;;;;4993605;28;20068;-91
2023/01/03 11:35:55;;;;;;;13.82;9.35;;;;;;;;;;4994294;28;20046;-91
2023/01/03 11:38:33;;;;;;;12.88;11.32;;;;;;;;;;5006346;28;20046;-91
2023/01/03 11:41:11;;;;;;;14.18;11.23;;;;;;;;;;4992671;28;20063;-92
2023/01/03 11:43:53;;;;;;;14.45;10.98;;;;;;;;;;4994159;28;20049;-90
2023/01/03 11:46:44;;;;;;;14.23;11.50;;;;;;;;;;4986914;28;20557;-91
2023/01/03 11:49:21;;;;;;;12.77;10.15;;;;;;;;;;5006604;28;20065;-91
2023/01/03 11:52:05;;;;;;;12.48;9.35;;;;;;;;;;5007383;28;20057;-89
2023/01/03 11:55:00;;;;;;;14.65;11.68;;;;;;;;;;4996707;28;20042;-93
2023/01/03 11:57:44;;;;;;;14.63;11.15;;;;;;;;;;4979878;28;20065;-92
2023/01/03 12:00:20;;;;;;;11.40;9.38;;;;;;;;;;4987311;28;20058;-91
2023/01/03 12:03:01;;;;;;;10.73;8.57;;;;;;;;;;4988871;28;20056;-91
2023/01/03 12:05:44;;;;;;;9.65;7.97;;;;;;;;;;4989640;28;20053;-92
2023/01/03 12:08:41;;;;;;;20.20;10.43;;;;;;;;;;4989157;28;20219;-92
2023/01/03 12:11:16;;;;;;;11.15;8.73;;;;;;;;;;4998243;28;20965;-90
2023/01/03 12:13:52;;;;;;;10.43;8.45;;;;;;;;;;5009271;28;20054;-89
2023/01/03 12:16:25;;;;;;;7.88;7.07;;;;;;;;;;4988550;28;20057;-90
2023/01/03 12:18:55;;;;;;;12.00;8.50;;;;;;;;;;4997538;28;20061;-91
2023/01/03 12:21:35;;;;;;;10.90;7.13;;;;;;;;;;4999133;28;20250;-94
2023/01/03 12:24:10;;;;;;;10.82;7.90;;;;;;;;;;5013573;28;20072;-91
2023/01/03 12:26:42;;;;;;;9.90;6.65;;;;;;;;;;4998320;28;20053;-92
2023/01/03 12:29:16;;;;;;;8.13;6.22;;;;;;;;;;5012386;28;20065;-91
2023/01/03 12:32:06;;;;;;;6.15;4.90;;;;;;;;;;4998289;28;20045;-92
2023/01/03 12:34:42;;;;;;;7.20;5.88;;;;;;;;;;5006107;28;20438;-91
2023/01/03 12:37:17;;;;;;;15.35;6.85;;;;;;;;;;4988663;28;20054;-90
2023/01/03 12:39:56;;;;;;;8.30;6.72;;;;;;;;;;4999410;28;20057;-91
2023/01/03 12:42:36;;;;;;;7.68;6.40;;;;;;;;;;4991179;28;20054;-91
2023/01/03 12:45:27;;;;;;;10.07;7.88;;;;;;;;;;4993239;28;20054;-92
2023/01/03 12:48:00;;;;;;;9.77;7.32;;;;;;;;;;4994334;28;20407;-93
2023/01/03 12:50:33;;;;;;;6.70;5.65;;;;;;;;;;5010965;28;20050;-91
2023/01/03 12:53:06;;;;;;;6.35;5.43;;;;;;;;;;5008947;28;20058;-91
2023/01/03 12:55:48;;;;;;;11.55;7.75;;;;;;;;;;4997484;28;20506;-89
2023/01/03 12:58:29;;;;;;;6.80;6.10;;;;;;;;;;4992214;28;20054;-90
2023/01/03 13:01:04;;;;;;;7.88;5.43;;;;;;;;;;4981371;28;20041;-91
2023/01/03 13:03:38;;;;;;;7.05;6.13;;;;;;;;;;4989623;28;20534;-91
2023/01/03 13:06:13;;;;;;;7.97;5.45;;;;;;;;;;5000417;28;20060;-90
2023/01/03 13:08:44;;;;;;;7.18;5.78;;;;;;;;;;4994585;28;20519;-91
2023/01/03 13:11:18;;;;;;;7.97;4.75;;;;;;;;;;4992195;28;20112;-90
2023/01/03 13:13:53;;;;;;;6.32;4.72;;;;;;;;;;4988396;28;20061;-92
2023/01/03 13:16:55;;;;;;;5.75;4.97;;;;;;;;;;4992189;28;20435;-90
2023/01/03 13:20:01;;;;;;;5.35;4.40;;;;;;;;;;5010774;28;20050;-92
2023/01/03 13:22:58;;;;;;;4.20;3.65;;;;;;;;;;5000491;28;20061;-91
2023/01/03 13:25:43;;;;;;;5.82;4.63;;;;;;;;;;4942622;28;20050;-92
2023/01/03 13:28:41;;;;;;;5.55;4.15;;;;;;;;;;4986129;28;20037;-90
2023/01/03 13:31:52;;;;;;;4.93;4.43;;;;;;;;;;4982964;28;20537;-91
2023/01/03 13:34:44;;;;;;;5.88;4.43;;;;;;;;;;4994986;28;20053;-91
2023/01/03 13:37:18;;;;;;;5.88;4.20;;;;;;;;;;4996477;28;20060;-91
2023/01/03 13:40:17;;;;;;;6.47;4.20;;;;;;;;;;4995178;28;20427;-90
2023/01/03 13:42:46;;;;;;;24.48;11.30;;;;;;;;;;4978671;28;20061;-92
2023/01/03 13:48:53;;;;;;;4.78;4.30;;;;;;;;;;4988662;28;20046;-91
2023/01/03 13:51:27;;;;;;;9.68;4.10;;;;;;;;;;4988446;28;20055;-92
2023/01/03 13:54:04;;;;;;;5.80;4.53;;;;;;;;;;4983348;28;20046;-91
2023/01/03 13:57:10;;;;;;;6.60;4.47;;;;;;;;;;4993747;28;20050;-91
2023/01/03 13:59:43;;;;;;;4.18;3.78;;;;;;;;;;4979149;28;20046;-91
2023/01/03 14:02:54;;;;;;;6.22;4.57;;;;;;;;;;4997236;28;20049;-91
2023/01/03 14:05:53;;;;;;;3.97;3.50;;;;;;;;;;4978104;28;20073;-91
2023/01/03 14:08:53;;;;;;;4.32;3.28;;;;;;;;;;4984619;28;20045;-91
2023/01/03 14:11:36;;;;;;;3.72;3.40;;;;;;;;;;4990688;28;20428;-92
2023/01/03 14:14:05;;;;;;;4.03;3.65;;;;;;;;;;4987902;28;20054;-91
2023/01/03 14:16:46;;;;;;;6.90;4.50;;;;;;;;;;4993734;28;20045;-91
2023/01/03 14:19:26;;;;;;;4.15;3.63;;;;;;;;;;5009798;28;20042;-89
2023/01/03 14:21:57;;;;;;;8.65;4.57;;;;;;;;;;4992961;28;20054;-90
2023/01/03 14:24:30;;;;;;;7.88;4.47;;;;;;;;;;4993867;28;20050;-91
2023/01/03 14:27:06;;;;;;;7.85;4.72;;;;;;;;;;4993334;28;20045;-89
2023/01/03 14:29:39;;;;;;;5.65;3.78;;;;;;;;;;5008047;28;20046;-91
2023/01/03 14:32:18;;;;;;;4.82;3.38;;;;;;;;;;4991539;28;20068;-90
2023/01/03 14:34:49;;;;;;;7.35;4.43;;;;;;;;;;4992217;28;20065;-91
2023/01/03 14:37:19;;;;;;;7.03;5.72;;;;;;;;;;4981199;28;20046;-91
2023/01/03 14:39:57;;;;;;;7.65;5.28;;;;;;;;;;5007400;28;20140;-92
2023/01/03 14:42:29;;;;;;;5.85;3.88;;;;;;;;;;4993065;28;20049;-90
2023/01/03 14:45:00;;;;;;;5.05;4.03;;;;;;;;;;4994321;28;20050;-91
2023/01/03 14:47:32;;;;;;;5.00;4.25;;;;;;;;;;4991732;28;20065;-91
2023/01/03 14:50:00;;;;;;;9.25;5.28;;;;;;;;;;4993770;28;20518;-91
2023/01/03 14:52:30;;;;;;;7.40;5.57;;;;;;;;;;4993843;28;20053;-91
2023/01/03 14:55:02;;;;;;;8.85;5.13;;;;;;;;;;4994131;28;20548;-93
2023/01/03 14:57:35;;;;;;;5.68;5.13;;;;;;;;;;4994667;28;20084;-91
2023/01/03 15:00:08;;;;;;;6.40;4.88;;;;;;;;;;5010227;28;20388;-92
2023/01/03 15:02:40;;;;;;;7.70;4.93;;;;;;;;;;4977725;28;20056;-91
2023/01/03 15:05:25;;;;;;;8.77;7.18;;;;;;;;;;4995396;28;20057;-92
2023/01/03 15:07:55;;;;;;;8.90;6.18;;;;;;;;;;4992652;28;20526;-92
2023/01/03 15:10:40;;;;;;;9.68;7.22;;;;;;;;;;4988115;28;20057;-90
2023/01/03 15:13:19;;;;;;;8.35;6.05;;;;;;;;;;4991292;28;20046;-91
2023/01/03 15:15:59;;;;;;;8.60;7.70;;;;;;;;;;4991487;28;20057;-91
2023/01/03 15:18:33;;;;;;;10.85;6.57;;;;;;;;;;5007685;28;20045;-92
2023/01/03 15:21:06;;;;;;;7.90;6.75;;;;;;;;;;4992853;28;20049;-91
2023/01/03 15:23:38;;;;;;;8.77;6.22;;;;;;;;;;4997415;28;20061;-91
2023/01/03 15:26:18;;;;;;;7.32;6.40;;;;;;;;;;4992840;28;20058;-91
2023/01/03 15:28:52;;;;;;;7.80;6.93;;;;;;;;;;4996818;28;20058;-91
2023/01/03 15:31:33;;;;;;;6.22;5.25;;;;;;;;;;4988150;28;20050;-91
2023/01/03 15:34:14;;;;;;;5.90;5.30;;;;;;;;;;5008532;28;20049;-91
2023/01/03 15:36:46;;;;;;;7.55;4.93;;;;;;;;;;5003931;28;20491;-91
2023/01/03 15:39:18;;;;;;;7.57;5.22;;;;;;;;;;4995142;28;20050;-90
2023/01/03 15:44:35;;;;;;;5.60;4.32;;;;;;;;;;4991821;28;20492;-80
2023/01/03 15:47:06;;;;;;;5.75;5.15;;;;;;;;;;4980699;28;20421;-80
2023/01/03 15:49:39;;;;;;;6.68;5.57;;;;;;;;;;4991284;28;20517;-80
2023/01/03 15:52:06;;;;;;;7.68;5.28;;;;;;;;;;4984351;28;20049;-80
2023/01/03 15:54:33;;;;;;;5.82;4.68;;;;;;;;;;4993073;28;20050;-80
2023/01/03 15:57:02;;;;;;;5.53;4.40;;;;;;;;;;4992770;28;20051;-80
2023/01/03 15:59:32;;;;;;;6.43;4.68;;;;;;;;;;4991224;28;20295;-81
2023/01/03 16:02:01;;;;;;;7.68;4.55;;;;;;;;;;4990347;28;20061;-81
2023/01/03 16:04:29;;;;;;;9.00;6.20;;;;;;;;;;4992643;28;20058;-80
2023/01/03 16:06:56;;;;;;;9.07;6.47;;;;;;;;;;4989063;28;20058;-80
2023/01/03 16:09:23;;;;;;;11.90;7.22;;;;;;;;;;4991241;28;20050;-80
2023/01/03 16:11:56;;;;;;;12.70;9.07;;;;;;;;;;4992340;28;20046;-80
2023/01/03 16:14:28;;;;;;;15.80;9.13;;;;;;;;;;4989657;28;20054;-80
2023/01/03 16:16:56;;;;;;;9.35;6.38;;;;;;;;;;4990661;28;20049;-80
2023/01/03 16:19:26;;;;;;;10.40;7.10;;;;;;;;;;4973610;28;20047;-79
2023/01/03 16:21:55;;;;;;;7.97;5.75;;;;;;;;;;4991145;28;20054;-79
2023/01/03 16:24:22;;;;;;;5.05;4.55;;;;;;;;;;5001337;28;20043;-79
2023/01/03 16:26:50;;;;;;;10.68;7.97;;;;;;;;;;4986434;28;20053;-79
2023/01/03 16:29:17;;;;;;;9.65;7.38;;;;;;;;;;4990257;28;20054;-79
2023/01/03 16:31:45;;;;;;;10.18;7.43;;;;;;;;;;4970789;28;20066;-79
2023/01/03 16:34:16;;;;;;;19.33;8.00;;;;;;;;;;4987431;28;20050;-79
2023/01/03 16:36:46;;;;;;;10.10;6.63;;;;;;;;;;4985538;28;20097;-82
2023/01/03 16:39:15;;;;;;;7.13;4.97;;;;;;;;;;4987878;28;20057;-79
2023/01/03 16:41:43;;;;;;;7.13;5.93;;;;;;;;;;4991388;28;20062;-79
2023/01/03 16:44:10;;;;;;;8.00;4.88;;;;;;;;;;4990483;28;20053;-79
2023/01/03 16:46:38;;;;;;;5.95;5.25;;;;;;;;;;4985594;28;20050;-78
2023/01/03 16:49:06;;;;;;;7.70;5.00;;;;;;;;;;4988388;28;20587;-78
2023/01/03 16:51:35;;;;;;;8.30;6.25;;;;;;;;;;4989831;28;20698;-78